EFSI/SJY METAR and TAF weather

Enter ICAO airport designator
Station Type Date Time Source
EFSI METAR 2021/04/13 08:20 UTC NOAA

EFSI 130820Z AUTO 18008KT 120V230 9999 FEW023 BKN031 BKN042 05/M01 Q1015


Station Type Date Time Source
EFSI Decoded METAR 2021/04/13 08:20 UTC NOAA

Seinajoki-Ilmajok, Finland (EFSI) 62-41-37N 022-49-55E
Apr 13, 2021 - 04:20 AM EDT / 2021.04.13 0820 UTC
Wind: from the S (180 degrees) at 9 MPH (8 KT) (direction variable):0
Visibility: greater than 7 mile(s):0
Sky conditions: mostly cloudy
Temperature: 41 F (5 C)
Dew Point: 30 F (-1 C)
Relative Humidity: 65%
Pressure (altimeter): 29.97 in. Hg (1015 hPa)
ob: EFSI 130820Z AUTO 18008KT 120V230 9999 FEW023 BKN031 BKN042 05/M01 Q1015
cycle: 8

Station Type Date Time Source
EFSI TAF 2012/03/06 09:42 UTC NOAA

TAF EFSI 060830Z 0609/0621 12003KT CAVOK

Example: see airport list